createdAt,value
2022-11-02T00:01:26.171Z,59.73
2022-11-02T00:03:53.812Z,57.17
2022-11-02T00:06:21.918Z,58.37
2022-11-02T00:08:49.532Z,57.83
2022-11-02T00:11:17.420Z,58.87
2022-11-02T00:13:45.134Z,57.73
2022-11-02T00:16:14.895Z,58.03
2022-11-02T00:18:43.085Z,56.10
2022-11-02T00:21:11.703Z,58.77
2022-11-02T00:23:40.652Z,58.00
2022-11-02T00:26:08.822Z,57.27
2022-11-02T00:28:36.563Z,53.60
2022-11-02T00:31:04.562Z,55.37
2022-11-02T00:33:32.262Z,54.37
2022-11-02T00:36:00.243Z,55.27
2022-11-02T00:38:28.781Z,54.87
2022-11-02T00:40:56.705Z,52.87
2022-11-02T00:43:24.721Z,55.17
2022-11-02T00:45:52.588Z,53.27
2022-11-02T00:48:20.334Z,53.17
2022-11-02T00:50:48.273Z,57.10
2022-11-02T00:53:16.864Z,54.30
2022-11-02T00:55:54.037Z,55.00
2022-11-02T00:58:22.391Z,52.57
2022-11-02T01:00:51.911Z,52.33
2022-11-02T01:03:19.567Z,52.30
2022-11-02T01:05:47.938Z,60.37
2022-11-02T01:08:15.864Z,50.90
2022-11-02T01:10:48.118Z,54.00
2022-11-02T01:13:17.783Z,50.60
2022-11-02T01:15:45.658Z,52.90
2022-11-02T01:18:13.295Z,50.80
2022-11-02T01:20:41.121Z,52.57
2022-11-02T01:23:08.778Z,47.33
2022-11-02T01:25:36.555Z,49.13
2022-11-02T01:28:05.076Z,51.07
2022-11-02T01:30:34.013Z,49.57
2022-11-02T01:33:01.667Z,51.40
2022-11-02T01:35:29.446Z,48.17
2022-11-02T01:37:57.045Z,48.70
2022-11-02T01:40:24.988Z,51.57
2022-11-02T01:42:52.644Z,49.23
2022-11-02T01:45:20.522Z,50.50
2022-11-02T01:47:49.354Z,49.20
2022-11-02T01:50:19.885Z,49.00
2022-11-02T01:52:47.602Z,46.73
2022-11-02T01:55:17.313Z,49.37
2022-11-02T01:57:48.438Z,50.67
2022-11-02T02:00:19.115Z,47.90
2022-11-02T02:02:50.569Z,46.53
2022-11-02T02:05:21.704Z,45.67
2022-11-02T02:07:51.326Z,44.70
2022-11-02T02:10:19.684Z,46.53
2022-11-02T02:12:47.651Z,46.13
2022-11-02T02:15:21.795Z,43.00
2022-11-02T02:18:20.536Z,45.80
2022-11-02T02:21:21.013Z,46.47
2022-11-02T02:24:05.787Z,45.33
2022-11-02T02:26:45.708Z,44.63
2022-11-02T02:29:20.472Z,43.07
2022-11-02T02:31:51.653Z,42.73
2022-11-02T02:34:20.978Z,43.47
2022-11-02T02:37:07.147Z,43.23
2022-11-02T02:39:46.977Z,44.80
2022-11-02T02:42:32.558Z,46.70
2022-11-02T02:45:06.317Z,43.70
2022-11-02T02:47:35.452Z,41.83
2022-11-02T02:50:08.965Z,41.87
2022-11-02T02:52:38.102Z,41.63
2022-11-02T02:55:07.670Z,39.77
2022-11-02T02:57:36.225Z,40.40
2022-11-02T03:00:05.284Z,41.03
2022-11-02T03:02:37.512Z,43.37
2022-11-02T03:05:23.218Z,42.10
2022-11-02T03:07:52.186Z,39.43
2022-11-02T03:10:19.895Z,39.80
2022-11-02T03:12:57.362Z,41.27
2022-11-02T03:15:36.194Z,38.57
2022-11-02T03:18:18.191Z,37.50
2022-11-02T03:20:55.580Z,38.77
2022-11-02T03:23:38.658Z,40.83
2022-11-02T03:26:06.356Z,42.17
2022-11-02T03:28:38.027Z,42.27
2022-11-02T03:31:23.901Z,43.93
2022-11-02T03:34:07.220Z,45.60
2022-11-02T03:36:38.539Z,43.73
2022-11-02T03:39:11.263Z,53.67
2022-11-02T03:41:41.725Z,55.53
2022-11-02T03:44:15.859Z,55.63
2022-11-02T03:46:45.107Z,53.37
2022-11-02T03:49:18.546Z,52.47
2022-11-02T03:51:48.403Z,54.00
2022-11-02T03:54:37.056Z,52.00
2022-11-02T03:57:06.339Z,45.03
2022-11-02T03:59:34.976Z,44.43
2022-11-02T04:02:03.422Z,43.13
2022-11-02T04:04:32.133Z,42.33
2022-11-02T04:07:00.038Z,44.97
2022-11-02T04:09:28.556Z,43.63
2022-11-02T04:12:15.479Z,45.30
2022-11-02T04:14:43.388Z,44.03
2022-11-02T04:17:33.139Z,45.73
2022-11-02T04:20:04.682Z,43.27
2022-11-02T04:22:50.923Z,43.80
2022-11-02T04:25:20.611Z,43.93
2022-11-02T04:28:07.470Z,41.40
2022-11-02T04:30:37.608Z,42.67
2022-11-02T04:33:24.416Z,42.77
2022-11-02T04:36:03.403Z,44.43
2022-11-02T04:38:41.711Z,43.00
2022-11-02T04:41:49.294Z,42.70
2022-11-02T04:44:37.113Z,40.10
2022-11-02T04:47:17.591Z,39.60
2022-11-02T04:49:45.983Z,39.33
2022-11-02T04:52:17.576Z,36.47
2022-11-02T04:54:49.907Z,37.93
2022-11-02T04:57:18.844Z,37.83
2022-11-02T04:59:46.462Z,38.37
2022-11-02T05:02:14.783Z,41.17
2022-11-02T05:04:44.008Z,36.87
2022-11-02T05:07:12.458Z,37.57
2022-11-02T05:09:42.513Z,36.77
2022-11-02T05:12:11.640Z,34.30
2022-11-02T05:14:39.285Z,32.90
2022-11-02T05:17:07.814Z,32.47
2022-11-02T05:19:37.571Z,29.87
2022-11-02T05:22:06.651Z,30.10
2022-11-02T05:24:35.147Z,28.93
2022-11-02T05:27:03.201Z,30.23
2022-11-02T05:29:33.970Z,28.97
2022-11-02T05:32:02.140Z,28.40
2022-11-02T05:34:29.854Z,28.20
2022-11-02T05:36:57.992Z,29.33
2022-11-02T05:39:26.041Z,26.80
2022-11-02T05:41:53.865Z,27.63
2022-11-02T05:44:21.786Z,28.50
2022-11-02T05:46:49.719Z,27.43
2022-11-02T05:49:17.393Z,28.63
2022-11-02T05:51:45.193Z,28.10
2022-11-02T05:54:12.787Z,27.97
2022-11-02T05:56:40.671Z,28.00
2022-11-02T05:59:08.316Z,28.73
2022-11-02T06:01:36.151Z,27.60
2022-11-02T06:04:03.993Z,28.03
2022-11-02T06:06:31.881Z,27.53
2022-11-02T06:09:04.235Z,28.30
2022-11-02T06:11:35.395Z,28.77
2022-11-02T06:14:03.934Z,28.87
2022-11-02T06:16:31.822Z,28.70
2022-11-02T06:18:59.499Z,29.07
2022-11-02T06:21:27.540Z,28.83
2022-11-02T06:23:55.067Z,28.90
2022-11-02T06:26:22.871Z,28.60
2022-11-02T06:28:50.559Z,26.80
2022-11-02T06:31:18.370Z,29.23
2022-11-02T06:33:46.149Z,29.07
2022-11-02T06:36:14.038Z,28.60
2022-11-02T06:38:42.250Z,30.00
2022-11-02T06:41:10.495Z,28.83
2022-11-02T06:43:39.742Z,27.27
2022-11-02T06:46:07.648Z,25.57
2022-11-02T06:48:35.930Z,24.13
2022-11-02T06:51:04.954Z,24.17
2022-11-02T06:53:33.172Z,24.43
2022-11-02T06:56:01.279Z,25.00
2022-11-02T06:58:28.987Z,24.27
2022-11-02T07:01:01.122Z,24.43
2022-11-02T07:03:29.653Z,22.63
2022-11-02T07:05:57.699Z,26.60
2022-11-02T07:08:25.796Z,23.87
2022-11-02T07:10:53.608Z,27.10
2022-11-02T07:13:21.244Z,25.20
2022-11-02T07:15:52.315Z,24.30
2022-11-02T07:18:19.904Z,25.50
2022-11-02T07:20:47.707Z,24.43
2022-11-02T07:23:15.424Z,24.43
2022-11-02T07:25:43.505Z,24.23
2022-11-02T07:28:11.187Z,26.20
2022-11-02T07:30:39.210Z,22.93
2022-11-02T07:33:07.215Z,22.10
2022-11-02T07:35:35.389Z,23.87
2022-11-02T07:38:04.121Z,22.13
2022-11-02T07:40:33.116Z,23.07
2022-11-02T07:43:01.098Z,22.17
2022-11-02T07:45:47.656Z,24.07
2022-11-02T07:48:15.399Z,23.20
2022-11-02T07:50:43.437Z,20.67
2022-11-02T07:53:11.200Z,29.30
2022-11-02T07:55:39.069Z,22.80
2022-11-02T07:58:08.206Z,23.40
2022-11-02T08:00:37.584Z,21.70
2022-11-02T08:03:06.702Z,21.77
2022-11-02T08:05:35.611Z,21.17
2022-11-02T08:08:12.573Z,20.47
2022-11-02T08:10:40.805Z,19.63
2022-11-02T08:13:09.392Z,20.87
2022-11-02T08:15:37.521Z,20.20
2022-11-02T08:18:14.513Z,20.47
2022-11-02T08:20:42.295Z,18.83
2022-11-02T08:23:11.072Z,20.30
2022-11-02T08:25:39.473Z,20.73
2022-11-02T08:28:08.355Z,20.10
2022-11-02T08:30:36.131Z,18.70
2022-11-02T08:33:05.172Z,20.07
2022-11-02T08:35:33.260Z,20.13
2022-11-02T08:38:01.279Z,21.23
2022-11-02T08:40:28.909Z,22.70
2022-11-02T08:42:58.022Z,23.87
2022-11-02T08:45:26.019Z,22.80
2022-11-02T08:47:54.335Z,22.00
2022-11-02T08:50:22.037Z,22.47
2022-11-02T08:52:50.123Z,22.97
2022-11-02T08:55:17.744Z,22.47
2022-11-02T08:57:49.406Z,23.23
2022-11-02T09:00:18.019Z,25.03
2022-11-02T09:02:45.965Z,23.07
2022-11-02T09:05:13.649Z,23.00
2022-11-02T09:07:41.485Z,21.90
2022-11-02T09:10:09.668Z,22.53
2022-11-02T09:12:37.480Z,21.63
2022-11-02T09:15:05.146Z,20.00
2022-11-02T09:17:32.979Z,21.77
2022-11-02T09:20:00.538Z,20.57
2022-11-02T09:22:28.557Z,20.10
2022-11-02T09:24:56.144Z,20.67
2022-11-02T09:27:23.982Z,20.23
2022-11-02T09:29:51.539Z,18.43
2022-11-02T09:32:19.416Z,16.87
2022-11-02T09:34:47.629Z,17.90
2022-11-02T09:37:15.461Z,18.67
2022-11-02T09:39:42.968Z,17.40
2022-11-02T09:42:21.558Z,18.23
2022-11-02T09:45:05.352Z,15.73
2022-11-02T09:48:14.811Z,15.40
2022-11-02T09:50:23.865Z,15.23
2022-11-02T09:52:55.516Z,13.90
2022-11-02T09:55:27.390Z,15.30
2022-11-02T09:57:59.711Z,13.55
2022-11-02T10:00:29.489Z,14.03
2022-11-02T10:03:28.398Z,14.13
2022-11-02T10:06:16.339Z,15.63
2022-11-02T10:08:56.689Z,15.83
2022-11-02T10:11:24.246Z,14.93
2022-11-02T10:14:12.330Z,14.60
2022-11-02T10:16:42.932Z,14.00
2022-11-02T10:19:16.154Z,14.33
2022-11-02T10:21:46.941Z,13.17
2022-11-02T10:24:25.522Z,12.93
2022-11-02T10:26:56.132Z,12.60
2022-11-02T10:29:30.756Z,13.07
2022-11-02T10:31:58.362Z,12.50
2022-11-02T10:34:29.541Z,11.82
2022-11-02T10:37:00.193Z,12.73
2022-11-02T10:39:28.053Z,12.30
2022-11-02T10:42:04.638Z,12.80
2022-11-02T10:44:56.102Z,12.57
2022-11-02T10:47:26.544Z,13.00
2022-11-02T10:50:31.869Z,12.23
2022-11-02T10:53:27.411Z,12.23
2022-11-02T10:55:51.050Z,11.20
2022-11-02T10:58:20.923Z,12.00
2022-11-02T11:00:49.319Z,10.60
2022-11-02T11:03:17.984Z,11.27
2022-11-02T11:05:52.425Z,10.43
2022-11-02T11:08:31.483Z,9.80
2022-11-02T11:11:21.183Z,10.13
2022-11-02T11:19:55.629Z,7.25
2022-11-02T11:22:28.679Z,7.43
2022-11-02T11:25:17.270Z,7.55
2022-11-02T11:27:46.415Z,6.95
2022-11-02T11:30:59.441Z,6.68
2022-11-02T11:33:21.585Z,6.72
2022-11-02T11:35:50.775Z,6.57
2022-11-02T11:38:26.263Z,7.20
2022-11-02T11:40:59.056Z,6.60
2022-11-02T11:43:30.485Z,6.63
2022-11-02T11:46:06.460Z,6.47
2022-11-02T11:48:46.859Z,6.65
2022-11-02T11:51:39.624Z,5.97
2022-11-02T11:54:29.255Z,5.43
2022-11-02T11:57:01.092Z,6.22
2022-11-02T11:59:45.132Z,5.90
2022-11-02T12:02:31.667Z,5.72
2022-11-02T12:05:18.898Z,5.45
2022-11-02T12:08:02.264Z,6.03
2022-11-02T12:11:07.452Z,5.30
2022-11-02T12:13:55.341Z,5.65
2022-11-02T12:16:29.010Z,6.03
2022-11-02T12:19:15.492Z,5.93
2022-11-02T12:22:02.273Z,6.63
2022-11-02T12:25:03.617Z,5.57
2022-11-02T12:27:52.398Z,5.85
2022-11-02T12:30:23.159Z,5.30
2022-11-02T12:32:57.420Z,5.20
2022-11-02T12:35:54.231Z,5.90
2022-11-02T12:38:38.013Z,5.47
2022-11-02T12:41:08.794Z,5.03
2022-11-02T12:43:43.844Z,4.53
2022-11-02T12:46:12.420Z,4.63
2022-11-02T12:48:43.897Z,5.00
2022-11-02T12:51:11.399Z,4.55
2022-11-02T12:53:42.640Z,5.65
2022-11-02T12:56:17.549Z,4.82
2022-11-02T12:58:46.973Z,4.20
2022-11-02T13:01:22.819Z,3.90
2022-11-02T13:03:58.100Z,3.75
2022-11-02T13:06:30.389Z,3.38
2022-11-02T13:09:01.940Z,3.97
2022-11-02T13:11:33.702Z,3.55
2022-11-02T13:14:03.786Z,4.28
2022-11-02T13:16:53.947Z,4.15
2022-11-02T13:19:30.273Z,4.57
2022-11-02T13:21:58.834Z,4.53
2022-11-02T13:24:40.828Z,3.75
2022-11-02T13:27:35.397Z,3.33
2022-11-02T13:30:15.887Z,2.97
2022-11-02T13:33:05.432Z,3.47
2022-11-02T13:35:34.944Z,3.78
2022-11-02T13:38:16.248Z,3.22
2022-11-02T13:40:50.043Z,3.17
2022-11-02T13:43:31.161Z,2.97
2022-11-02T13:46:33.910Z,3.83
2022-11-02T13:49:15.816Z,3.20
2022-11-02T13:51:55.530Z,3.35
2022-11-02T13:54:23.378Z,3.03
2022-11-02T13:56:55.953Z,3.42
2022-11-02T13:59:26.728Z,3.55
2022-11-02T14:01:55.513Z,3.67
2022-11-02T14:04:24.195Z,3.50
2022-11-02T14:06:52.113Z,3.42
2022-11-02T14:09:25.368Z,3.40
2022-11-02T14:12:10.828Z,3.30
2022-11-02T14:14:38.479Z,3.47
2022-11-02T14:17:13.464Z,3.72
2022-11-02T14:19:41.110Z,3.00
2022-11-02T14:22:16.361Z,3.70
2022-11-02T14:24:44.001Z,4.57
2022-11-02T14:27:16.755Z,3.70
2022-11-02T14:29:47.523Z,3.40
2022-11-02T14:32:21.843Z,3.70
2022-11-02T14:35:16.976Z,4.00
2022-11-02T14:37:54.057Z,4.70
2022-11-02T14:41:00.751Z,7.87
2022-11-02T14:44:10.147Z,7.20
2022-11-02T14:46:57.002Z,4.70
2022-11-02T14:49:30.465Z,3.80
2022-11-02T14:52:04.314Z,5.30
2022-11-02T14:54:34.525Z,5.20
2022-11-02T14:57:02.143Z,5.80
2022-11-02T14:59:35.862Z,6.63
2022-11-02T15:02:05.691Z,5.27
2022-11-02T15:04:35.212Z,5.13
2022-11-02T15:07:04.388Z,3.97
2022-11-02T15:09:50.961Z,3.60
2022-11-02T15:12:35.867Z,4.27
2022-11-02T15:15:23.903Z,4.40
2022-11-02T15:17:52.735Z,4.33
2022-11-02T15:20:24.826Z,4.23
2022-11-02T15:22:54.921Z,3.53
2022-11-02T15:25:29.395Z,4.00
2022-11-02T15:27:58.357Z,4.53
2022-11-02T15:30:28.587Z,4.17
2022-11-02T15:33:01.876Z,3.87
2022-11-02T15:35:39.997Z,4.20
2022-11-02T15:38:17.561Z,4.87
2022-11-02T15:40:49.941Z,5.33
2022-11-02T15:43:37.149Z,5.13
2022-11-02T15:46:24.859Z,4.57
2022-11-02T15:49:05.988Z,6.03
2022-11-02T15:51:40.546Z,5.17
2022-11-02T15:54:19.421Z,4.70
2022-11-02T15:57:06.407Z,6.00
2022-11-02T15:59:46.879Z,10.37
2022-11-02T16:02:22.755Z,6.53
2022-11-02T16:04:55.935Z,5.33
2022-11-02T16:07:33.499Z,4.87
2022-11-02T16:10:13.784Z,5.13
2022-11-02T16:12:41.922Z,4.20
2022-11-02T16:15:14.873Z,5.57
2022-11-02T16:17:43.324Z,5.13
2022-11-02T16:20:11.112Z,4.37
2022-11-02T16:22:39.118Z,4.67
2022-11-02T16:25:12.474Z,5.63
2022-11-02T16:27:40.564Z,5.00
2022-11-02T16:30:18.010Z,4.73
2022-11-02T16:32:46.682Z,5.47
2022-11-02T16:35:16.998Z,5.87
2022-11-02T16:37:45.598Z,5.70
2022-11-02T16:40:18.452Z,5.57
2022-11-02T16:42:50.728Z,5.00
2022-11-02T16:45:31.056Z,5.37
2022-11-02T16:47:58.978Z,6.50
2022-11-02T16:50:27.742Z,5.83
2022-11-02T16:52:58.891Z,6.23
2022-11-02T16:55:40.382Z,6.30
2022-11-02T16:58:14.371Z,8.57
2022-11-02T17:01:00.315Z,6.97
2022-11-02T17:03:35.213Z,6.73
2022-11-02T17:06:06.879Z,6.77
2022-11-02T17:08:38.066Z,5.97
2022-11-02T17:11:12.387Z,6.77
2022-11-02T17:13:49.278Z,5.97
2022-11-02T17:16:18.620Z,5.30
2022-11-02T17:18:46.876Z,5.67
2022-11-02T17:21:14.832Z,5.97
2022-11-02T17:23:44.998Z,5.37
2022-11-02T17:26:29.517Z,5.30
2022-11-02T17:29:01.846Z,5.47
2022-11-02T17:31:35.604Z,5.43
2022-11-02T17:34:09.878Z,4.60
2022-11-02T17:36:49.893Z,5.47
2022-11-02T17:39:19.895Z,5.03
2022-11-02T17:42:15.383Z,4.03
2022-11-02T17:44:46.190Z,3.90
2022-11-02T17:47:18.858Z,5.43
2022-11-02T17:49:47.119Z,4.50
2022-11-02T17:52:19.054Z,4.27
2022-11-02T17:54:47.129Z,4.40
2022-11-02T17:57:15.939Z,4.70
2022-11-02T17:59:43.688Z,5.47
2022-11-02T18:02:16.002Z,4.07
2022-11-02T18:04:44.937Z,4.73
2022-11-02T18:07:14.087Z,5.57
2022-11-02T18:09:42.187Z,5.90
2022-11-02T18:12:13.262Z,4.57
2022-11-02T18:14:41.450Z,6.00
2022-11-02T18:17:09.743Z,5.87
2022-11-02T18:19:37.673Z,5.63
2022-11-02T18:22:05.751Z,6.33
2022-11-02T18:24:33.733Z,5.73
2022-11-02T18:27:03.011Z,5.20
2022-11-02T18:29:31.437Z,5.53
2022-11-02T18:31:59.804Z,5.90
2022-11-02T18:34:27.706Z,5.93
2022-11-02T18:36:56.796Z,6.03
2022-11-02T18:39:25.177Z,5.17
2022-11-02T18:41:54.335Z,5.47
2022-11-02T18:44:23.456Z,5.70
2022-11-02T18:46:51.703Z,5.43
2022-11-02T18:49:20.512Z,6.70
2022-11-02T18:51:49.521Z,6.63
2022-11-02T18:54:18.241Z,8.07
2022-11-02T18:56:46.351Z,7.33
2022-11-02T18:59:14.115Z,7.00
2022-11-02T19:01:42.481Z,6.57
2022-11-02T19:04:16.995Z,6.07
2022-11-02T19:07:04.373Z,5.97
2022-11-02T19:09:33.712Z,8.07
2022-11-02T19:12:02.295Z,6.77
2022-11-02T19:14:38.788Z,6.30
2022-11-02T19:17:07.547Z,6.63
2022-11-02T19:19:35.906Z,5.97
2022-11-02T19:22:04.331Z,6.87
2022-11-02T19:24:32.244Z,6.60
2022-11-02T19:27:00.372Z,6.87
2022-11-02T19:29:28.098Z,6.70
2022-11-02T19:31:56.503Z,7.23
2022-11-02T19:34:24.239Z,8.37
2022-11-02T19:36:52.428Z,7.07
2022-11-02T19:39:20.425Z,7.87
2022-11-02T19:41:52.040Z,7.50
2022-11-02T19:44:19.674Z,7.67
2022-11-02T19:46:48.472Z,7.23
2022-11-02T19:49:16.135Z,9.67
2022-11-02T19:51:44.352Z,8.23
2022-11-02T19:54:12.763Z,7.03
2022-11-02T19:56:41.206Z,9.90
2022-11-02T19:59:08.854Z,8.70
2022-11-02T20:01:38.997Z,9.60
2022-11-02T20:04:07.166Z,8.37
2022-11-02T20:06:35.340Z,7.00
2022-11-02T20:09:04.633Z,6.53
2022-11-02T20:11:32.927Z,6.53
2022-11-02T20:14:02.636Z,6.83
2022-11-02T20:16:30.730Z,6.13
2022-11-02T20:18:59.808Z,7.70
2022-11-02T20:21:36.920Z,8.30
2022-11-02T20:24:11.271Z,8.27
2022-11-02T20:26:41.473Z,9.00
2022-11-02T20:29:12.445Z,8.10
2022-11-02T20:31:44.477Z,8.13
2022-11-02T20:34:13.976Z,7.27
2022-11-02T20:36:42.404Z,7.10
2022-11-02T20:39:11.158Z,6.13
2022-11-02T20:41:39.217Z,5.77
2022-11-02T20:44:07.380Z,6.80
2022-11-02T20:46:39.062Z,5.97
2022-11-02T20:49:20.665Z,6.07
2022-11-02T20:51:57.063Z,5.33
2022-11-02T20:54:25.324Z,3.93
2022-11-02T20:56:53.595Z,4.30
2022-11-02T20:59:21.102Z,5.17
2022-11-02T21:01:49.063Z,4.63
2022-11-02T21:04:20.742Z,4.53
2022-11-02T21:06:50.315Z,3.97
2022-11-02T21:09:19.025Z,5.17
2022-11-02T21:12:06.089Z,4.57
2022-11-02T21:14:33.985Z,4.90
2022-11-02T21:17:03.079Z,4.03
2022-11-02T21:19:31.146Z,4.67
2022-11-02T21:22:00.448Z,5.20
2022-11-02T21:24:29.190Z,5.50
2022-11-02T21:26:57.533Z,6.10
2022-11-02T21:29:25.778Z,5.30
2022-11-02T21:31:54.008Z,4.20
2022-11-02T21:34:21.860Z,3.73
2022-11-02T21:36:50.005Z,4.20
2022-11-02T21:39:17.774Z,4.97
2022-11-02T21:41:45.803Z,6.60
2022-11-02T21:44:13.564Z,5.63
2022-11-02T21:46:41.831Z,5.60
2022-11-02T21:49:09.629Z,3.30
2022-11-02T21:51:38.639Z,3.27
2022-11-02T21:54:06.342Z,2.93
2022-11-02T21:56:36.113Z,3.70
2022-11-02T21:59:05.522Z,3.20
2022-11-02T22:01:48.025Z,2.80
2022-11-02T22:04:16.207Z,3.93
2022-11-02T22:06:44.203Z,3.50
2022-11-02T22:09:12.785Z,3.40
2022-11-02T22:11:41.223Z,4.23
2022-11-02T22:14:09.168Z,3.17
2022-11-02T22:16:37.938Z,3.10
2022-11-02T22:19:10.209Z,2.90
2022-11-02T22:21:43.414Z,3.57
2022-11-02T22:24:11.538Z,3.13
2022-11-02T22:26:39.863Z,3.73
2022-11-02T22:29:07.858Z,5.23
2022-11-02T22:31:40.878Z,9.10
2022-11-02T22:34:10.477Z,9.67
2022-11-02T22:36:39.802Z,4.17
2022-11-02T22:39:08.482Z,4.03
2022-11-02T22:41:41.695Z,5.50
2022-11-02T22:44:14.041Z,10.47
2022-11-02T22:46:43.490Z,9.03
2022-11-02T22:49:12.611Z,5.00
2022-11-02T22:51:42.448Z,3.07
2022-11-02T22:54:13.731Z,3.77
2022-11-02T22:56:41.727Z,2.60
2022-11-02T22:59:09.465Z,3.03
2022-11-02T23:01:38.165Z,2.93
2022-11-02T23:04:06.479Z,3.57
2022-11-02T23:06:35.035Z,3.13
2022-11-02T23:09:03.300Z,3.23
2022-11-02T23:11:33.853Z,3.40
2022-11-02T23:14:01.474Z,3.27
2022-11-02T23:16:41.168Z,3.77
2022-11-02T23:19:31.165Z,3.10
2022-11-02T23:22:24.549Z,3.43
2022-11-02T23:25:13.008Z,3.23
2022-11-02T23:28:12.679Z,3.40
2022-11-02T23:30:59.964Z,3.90
2022-11-02T23:33:36.434Z,3.73
2022-11-02T23:36:11.236Z,4.07
2022-11-02T23:38:57.931Z,3.43
2022-11-02T23:41:26.024Z,3.63
2022-11-02T23:44:11.926Z,3.33
2022-11-02T23:46:45.263Z,3.27
2022-11-02T23:49:13.675Z,2.77
2022-11-02T23:52:00.027Z,3.27
2022-11-02T23:54:46.223Z,3.50
2022-11-02T23:57:14.111Z,2.70
2022-11-02T23:59:41.912Z,3.27
